Time;durP1;ratioP1;P1;durP2;ratioP2;P2;SDS_P1;SDS_P2;PMS_P1;PMS_P2;Temp;Humidity;BMP_temperature;BMP_pressure;BME280_temperature;BME280_humidity;BME280_pressure;Samples;Min_cycle;Max_cycle;Signal;HPM_P1;HPM_P2
2022/03/25 05:09:26;;;;;;;;;;;;;;;9.08;53.59;97702.75;4246503;27;10227;-61
2022/03/25 05:11:28;;;;;;;;;;;;;;;9.10;53.39;97706.03;4232848;27;5750;-61
2022/03/25 05:13:30;;;;;;;;;;;;;;;9.12;53.51;97711.16;4243648;27;7511;-60
2022/03/25 05:15:31;;;;;;;;;;;;;;;9.14;53.73;97712.63;4246832;27;6343;-61
2022/03/25 05:17:33;;;;;;;;;;;;;;;9.21;53.14;97707.56;4240566;27;5670;-61
2022/03/25 05:19:35;;;;;;;;;;;;;;;9.24;53.24;97715.97;4247143;27;6480;-61
2022/03/25 05:21:39;;;;;;;;;;;;;;;9.22;53.18;97717.94;4245568;27;6387;-61
2022/03/25 05:23:41;;;;;;;;;;;;;;;9.22;52.91;97723.22;4244313;27;5681;-61
2022/03/25 05:25:42;;;;;;;;;;;;;;;9.22;53.08;97723.22;4244317;27;5744;-62
2022/03/25 05:27:51;;;;;;;;;;;;;;;9.21;53.26;97724.22;4246841;27;6169;-62
2022/03/25 05:29:52;;;;;;;;;;;;;;;9.18;53.23;97727.19;4245051;27;5697;-61
2022/03/25 05:31:55;;;;;;;;;;;;;;;9.17;53.07;97716.75;4246695;27;5725;-62
2022/03/25 05:33:56;;;;;;;;;;;;;;;9.18;53.16;97721.06;4235170;27;5699;-61
2022/03/25 05:35:58;;;;;;;;;;;;;;;9.16;53.19;97730.94;4231041;28;5781;-61
2022/03/25 05:37:59;;;;;;;;;;;;;;;9.15;53.29;97726.66;4228582;28;5672;-62
2022/03/25 05:40:01;;;;;;;;;;;;;;;8.88;53.93;97725.94;4243455;27;5682;-61
2022/03/25 05:42:03;;;;;;;;;;;;;;;8.99;53.64;97722.16;4242160;27;5206;-61
2022/03/25 05:44:05;;;;;;;;;;;;;;;9.02;53.80;97730.59;4242804;27;7817;-61
2022/03/25 05:46:08;;;;;;;;;;;;;;;9.12;53.80;97726.97;4247927;27;5642;-61
2022/03/25 05:48:10;;;;;;;;;;;;;;;9.19;53.59;97728.00;4241453;27;5812;-61
2022/03/25 05:50:12;;;;;;;;;;;;;;;9.22;53.68;97722.41;4228640;28;5663;-61
2022/03/25 05:52:14;;;;;;;;;;;;;;;9.26;53.24;97724.53;4237289;27;5669;-61
2022/03/25 05:54:16;;;;;;;;;;;;;;;9.26;53.38;97723.72;4241136;27;5905;-62
2022/03/25 05:56:17;;;;;;;;;;;;;;;9.26;53.29;97721.06;4228916;27;5101;-61
2022/03/25 05:58:19;;;;;;;;;;;;;;;9.29;53.53;97718.97;4230471;28;7717;-61
2022/03/25 06:00:20;;;;;;;;;;;;;;;9.29;53.39;97721.59;4229810;27;6337;-61
2022/03/25 06:02:22;;;;;;;;;;;;;;;9.31;53.40;97731.97;4229813;27;5679;-61
2022/03/25 06:04:24;;;;;;;;;;;;;;;9.34;53.46;97731.66;4230644;28;5671;-61
2022/03/25 06:06:25;;;;;;;;;;;;;;;9.43;53.06;97735.13;4229607;27;5703;-62
2022/03/25 06:08:27;;;;;;;;;;;;;;;9.40;53.17;97732.81;4230089;28;5678;-61
2022/03/25 06:10:31;;;;;;;;;;;;;;;9.33;53.63;97738.75;4216416;28;5654;-61
2022/03/25 06:12:32;;;;;;;;;;;;;;;9.36;53.83;97739.41;4217870;28;5795;-61
2022/03/25 06:14:34;;;;;;;;;;;;;;;9.40;53.66;97740.72;4218394;28;5750;-62
2022/03/25 06:16:35;;;;;;;;;;;;;;;9.38;54.19;97742.69;4216815;28;5646;-61
2022/03/25 06:18:38;;;;;;;;;;;;;;;9.37;54.39;97735.78;4219237;28;5666;-61
2022/03/25 06:20:40;;;;;;;;;;;;;;;9.35;54.64;97743.84;4218658;28;5670;-61
2022/03/25 06:22:42;;;;;;;;;;;;;;;9.43;54.26;97745.69;4217930;28;5679;-61
2022/03/25 06:24:43;;;;;;;;;;;;;;;9.40;54.56;97756.56;4218636;28;6412;-61
2022/03/25 06:26:45;;;;;;;;;;;;;;;9.24;55.71;97752.91;4218386;28;5733;-61
2022/03/25 06:28:47;;;;;;;;;;;;;;;9.28;55.63;97751.56;4217252;28;5649;-61
2022/03/25 06:30:49;;;;;;;;;;;;;;;9.36;55.38;97749.97;4215405;28;5839;-60
2022/03/25 06:32:51;;;;;;;;;;;;;;;9.38;55.57;97747.97;4214728;28;6852;-60
2022/03/25 06:34:54;;;;;;;;;;;;;;;9.40;55.83;97754.75;4218531;28;5208;-60
2022/03/25 06:36:56;;;;;;;;;;;;;;;9.43;55.70;97754.44;4214557;28;7773;-61
2022/03/25 06:38:57;;;;;;;;;;;;;;;9.43;56.39;97756.25;4210444;28;5704;-60
2022/03/25 06:41:01;;;;;;;;;;;;;;;9.32;57.78;97758.22;4213705;28;5170;-61
2022/03/25 06:43:03;;;;;;;;;;;;;;;9.32;57.93;97755.56;4211693;28;7743;-61
2022/03/25 06:45:08;;;;;;;;;;;;;;;9.38;57.32;97754.06;4217358;28;5730;-61
2022/03/25 06:47:09;;;;;;;;;;;;;;;9.42;57.15;97757.25;4215308;28;6321;-61
2022/03/25 06:49:11;;;;;;;;;;;;;;;9.46;57.58;97756.75;4213896;28;5749;-61
2022/03/25 06:51:13;;;;;;;;;;;;;;;9.46;58.09;97751.47;4212434;28;5717;-61
2022/03/25 06:53:15;;;;;;;;;;;;;;;9.44;57.91;97757.91;4216148;28;5849;-61
2022/03/25 06:55:17;;;;;;;;;;;;;;;9.51;57.74;97759.75;4217374;28;5707;-61
2022/03/25 06:57:22;;;;;;;;;;;;;;;9.54;57.89;97756.75;4218394;28;5678;-61
2022/03/25 06:59:23;;;;;;;;;;;;;;;9.54;57.82;97751.47;4215136;28;6454;-61
2022/03/25 07:01:26;;;;;;;;;;;;;;;9.59;57.58;97746.53;4216738;28;5783;-62
2022/03/25 07:03:28;;;;;;;;;;;;;;;9.61;58.47;97749.00;4213953;28;5625;-62
2022/03/25 07:05:31;;;;;;;;;;;;;;;9.67;57.57;97750.19;4215677;28;5642;-62
2022/03/25 07:07:37;;;;;;;;;;;;;;;9.66;57.81;97752.00;4214583;28;5655;-59
2022/03/25 07:09:39;;;;;;;;;;;;;;;9.71;57.36;97754.94;4212613;28;5667;-60
2022/03/25 07:11:41;;;;;;;;;;;;;;;9.70;58.62;97755.13;4217565;28;5630;-60
2022/03/25 07:13:43;;;;;;;;;;;;;;;9.44;59.45;97757.91;4218249;28;5638;-60
2022/03/25 07:15:45;;;;;;;;;;;;;;;9.53;59.23;97762.22;4216417;28;5682;-61
2022/03/25 07:17:47;;;;;;;;;;;;;;;9.64;59.27;97759.25;4210104;28;5682;-60
2022/03/25 07:19:49;;;;;;;;;;;;;;;9.72;58.72;97767.16;4217666;28;5675;-60
2022/03/25 07:21:54;;;;;;;;;;;;;;;9.68;58.32;97765.84;4216842;28;6353;-61
2022/03/25 07:23:56;;;;;;;;;;;;;;;9.71;58.56;97762.88;4218061;28;5841;-60
2022/03/25 07:25:57;;;;;;;;;;;;;;;9.75;58.07;97766.84;4217700;28;5675;-60
2022/03/25 07:28:05;;;;;;;;;;;;;;;9.82;58.12;97761.72;4217415;28;5790;-60
2022/03/25 07:30:08;;;;;;;;;;;;;;;9.89;57.42;97760.91;4215195;28;5654;-62
2022/03/25 07:32:10;;;;;;;;;;;;;;;9.80;57.70;97769.00;4209566;28;5930;-59
2022/03/25 07:34:11;;;;;;;;;;;;;;;9.84;57.90;97760.56;4204830;28;5680;-59
2022/03/25 07:36:13;;;;;;;;;;;;;;;9.85;60.41;97764.88;4213333;28;5905;-59
2022/03/25 07:38:14;;;;;;;;;;;;;;;9.86;60.03;97760.41;4215768;28;5817;-60
2022/03/25 07:40:17;;;;;;;;;;;;;;;9.89;59.61;97768.00;4213646;28;5702;-59
2022/03/25 07:42:19;;;;;;;;;;;;;;;9.94;59.66;97765.69;4216205;28;6158;-61
2022/03/25 07:44:21;;;;;;;;;;;;;;;9.93;59.18;97767.50;4216191;28;5691;-60
2022/03/25 07:46:23;;;;;;;;;;;;;;;9.92;60.15;97765.84;4217296;28;5729;-61
2022/03/25 07:48:25;;;;;;;;;;;;;;;9.91;59.92;97772.13;4216147;28;5778;-60
2022/03/25 07:50:27;;;;;;;;;;;;;;;9.91;59.90;97769.50;4216439;28;5675;-59
2022/03/25 07:52:29;;;;;;;;;;;;;;;9.92;59.62;97765.84;4216015;28;5679;-58
2022/03/25 07:54:35;;;;;;;;;;;;;;;9.99;59.37;97767.84;4217534;28;5704;-59
2022/03/25 07:56:37;;;;;;;;;;;;;;;9.97;59.80;97769.84;4215419;28;5672;-65
2022/03/25 07:58:41;;;;;;;;;;;;;;;9.90;60.80;97767.84;4216978;28;5678;-64
2022/03/25 08:00:44;;;;;;;;;;;;;;;9.82;60.08;97767.81;4215564;28;5691;-65
2022/03/25 08:02:48;;;;;;;;;;;;;;;9.88;60.23;97771.66;4217554;28;5705;-64
2022/03/25 08:04:50;;;;;;;;;;;;;;;10.12;60.58;97770.81;4216346;28;5654;-64
2022/03/25 08:06:54;;;;;;;;;;;;;;;10.05;61.07;97769.81;4217443;28;5635;-64
2022/03/25 08:08:56;;;;;;;;;;;;;;;10.07;61.25;97765.19;4216759;28;5807;-64
2022/03/25 08:10:58;;;;;;;;;;;;;;;10.04;60.20;97755.78;4215370;28;5667;-64
2022/03/25 08:13:01;;;;;;;;;;;;;;;9.93;61.54;97767.50;4217144;28;5680;-65
2022/03/25 08:15:07;;;;;;;;;;;;;;;9.84;61.51;97765.84;4215574;28;5666;-64
2022/03/25 08:17:13;;;;;;;;;;;;;;;9.96;61.07;97757.59;4216490;28;5739;-65
2022/03/25 08:19:15;;;;;;;;;;;;;;;10.08;60.56;97761.53;4217187;28;5688;-61
2022/03/25 08:21:17;;;;;;;;;;;;;;;10.10;60.71;97764.88;4203845;28;5123;-61
2022/03/25 08:28:05;;;;;;;;;;;;;;;10.19;59.86;97764.72;4216351;28;5767;-61
2022/03/25 08:30:07;;;;;;;;;;;;;;;10.02;59.82;97772.78;4215330;28;5085;-63
2022/03/25 08:32:10;;;;;;;;;;;;;;;10.05;58.77;97762.72;4216144;28;5687;-62
2022/03/25 08:34:16;;;;;;;;;;;;;;;10.15;58.16;97762.53;4216899;28;5675;-61
2022/03/25 08:36:18;;;;;;;;;;;;;;;10.31;57.16;97759.94;4214621;28;5770;-61
2022/03/25 08:38:20;;;;;;;;;;;;;;;10.36;56.02;97754.94;4215818;28;5675;-61
2022/03/25 08:40:22;;;;;;;;;;;;;;;10.45;55.30;97764.53;4200743;28;5717;-61
2022/03/25 08:42:25;;;;;;;;;;;;;;;10.43;52.69;97760.41;4212550;28;5814;-61
2022/03/25 08:44:26;;;;;;;;;;;;;;;10.48;54.37;97758.06;4212749;28;5687;-61
2022/03/25 08:46:28;;;;;;;;;;;;;;;10.50;55.64;97754.25;4215204;28;5674;-61
2022/03/25 08:48:30;;;;;;;;;;;;;;;10.62;56.33;97760.00;4216316;28;5679;-61
2022/03/25 08:50:32;;;;;;;;;;;;;;;10.76;55.59;97756.69;4214623;28;5684;-61
2022/03/25 08:52:34;;;;;;;;;;;;;;;10.85;55.01;97754.81;4215837;28;5678;-61
2022/03/25 08:54:35;;;;;;;;;;;;;;;10.82;54.75;97760.44;4216709;28;5663;-61
2022/03/25 08:56:38;;;;;;;;;;;;;;;10.85;54.67;97757.44;4216855;28;5783;-62
2022/03/25 08:58:41;;;;;;;;;;;;;;;10.86;54.63;97753.81;4215513;28;5660;-60
2022/03/25 09:00:43;;;;;;;;;;;;;;;10.87;53.90;97752.81;4215793;28;5788;-60
2022/03/25 09:02:46;;;;;;;;;;;;;;;10.73;53.72;97757.00;4216430;28;5768;-61
2022/03/25 09:04:47;;;;;;;;;;;;;;;10.86;53.28;97764.38;4215194;28;5101;-61
2022/03/25 09:06:49;;;;;;;;;;;;;;;10.77;51.96;97758.31;4216587;28;5711;-61
2022/03/25 09:08:51;;;;;;;;;;;;;;;10.80;52.54;97759.78;4215691;28;5634;-61
2022/03/25 09:10:53;;;;;;;;;;;;;;;10.77;51.74;97755.69;4215682;28;5845;-60
2022/03/25 09:12:55;;;;;;;;;;;;;;;10.87;52.31;97758.09;4215703;28;5810;-61
2022/03/25 09:14:57;;;;;;;;;;;;;;;10.98;50.67;97749.78;4214975;28;5675;-60
2022/03/25 09:16:59;;;;;;;;;;;;;;;10.92;51.15;97755.78;4215128;28;5685;-60
2022/03/25 09:19:01;;;;;;;;;;;;;;;11.08;51.01;97753.03;4216460;28;5671;-61
2022/03/25 09:21:02;;;;;;;;;;;;;;;11.15;50.56;97755.00;4216781;28;5671;-61
2022/03/25 09:23:05;;;;;;;;;;;;;;;11.24;48.68;97748.69;4215912;28;5113;-61
2022/03/25 09:25:11;;;;;;;;;;;;;;;11.28;49.80;97745.50;4216960;28;5663;-61
2022/03/25 09:27:13;;;;;;;;;;;;;;;11.36;49.26;97749.94;4214671;28;5666;-60
2022/03/25 09:29:15;;;;;;;;;;;;;;;11.29;48.95;97743.69;4215147;28;6490;-60
2022/03/25 09:31:17;;;;;;;;;;;;;;;11.37;47.81;97741.00;4213469;28;5707;-60
2022/03/25 09:33:38;;;;;;;;;;;;;;;11.31;48.76;97739.03;4199931;28;5781;-60
2022/03/25 09:35:42;;;;;;;;;;;;;;;11.26;49.94;97736.91;4215030;28;5749;-60
2022/03/25 09:37:47;;;;;;;;;;;;;;;11.48;49.85;97742.41;4216499;28;5854;-60
2022/03/25 09:39:50;;;;;;;;;;;;;;;11.53;49.49;97738.22;4205674;28;5748;-63
2022/03/25 09:41:52;;;;;;;;;;;;;;;11.45;48.83;97735.66;4216151;28;5659;-64
2022/03/25 09:43:54;;;;;;;;;;;;;;;11.29;49.58;97747.16;4215512;28;5664;-63
2022/03/25 09:46:03;;;;;;;;;;;;;;;11.46;48.55;97739.94;4218340;28;5671;-64
2022/03/25 09:48:06;;;;;;;;;;;;;;;11.61;47.81;97740.81;4216392;28;5703;-64
2022/03/25 09:50:14;;;;;;;;;;;;;;;11.66;47.07;97733.19;4218463;28;5999;-64
2022/03/25 09:52:20;;;;;;;;;;;;;;;11.66;47.56;97732.34;4219646;28;5770;-64
2022/03/25 09:54:42;;;;;;;;;;;;;;;11.68;48.48;97732.19;4217954;28;5839;-63
2022/03/25 09:56:43;;;;;;;;;;;;;;;11.70;48.56;97735.47;4218011;28;5694;-62
2022/03/25 09:58:46;;;;;;;;;;;;;;;11.73;49.09;97737.75;4218944;28;5805;-64
2022/03/25 10:00:49;;;;;;;;;;;;;;;11.80;50.13;97718.38;4219421;28;5675;-62
2022/03/25 10:02:56;;;;;;;;;;;;;;;11.71;50.80;97727.34;4219189;28;5862;-62
2022/03/25 10:04:59;;;;;;;;;;;;;;;11.87;50.56;97723.78;4219203;28;5667;-62
2022/03/25 10:07:00;;;;;;;;;;;;;;;11.88;50.59;97720.13;4217972;28;5683;-63
2022/03/25 10:09:03;;;;;;;;;;;;;;;11.88;51.05;97720.94;4218494;28;5667;-63
2022/03/25 10:11:21;;;;;;;;;;;;;;;11.72;50.67;97725.53;4217823;28;5747;-63
2022/03/25 10:13:23;;;;;;;;;;;;;;;11.84;50.37;97724.13;4219021;28;5683;-64
2022/03/25 10:15:30;;;;;;;;;;;;;;;11.98;47.10;97718.03;4218728;28;6384;-64
2022/03/25 10:17:46;;;;;;;;;;;;;;;11.97;48.41;97716.41;4219101;28;5684;-64
2022/03/25 10:19:54;;;;;;;;;;;;;;;12.13;49.80;97713.63;4219291;28;5683;-63
2022/03/25 10:22:03;;;;;;;;;;;;;;;12.22;48.61;97703.72;4219007;28;5674;-63
2022/03/25 10:24:09;;;;;;;;;;;;;;;12.26;48.68;97710.34;4219190;28;5683;-63
2022/03/25 10:26:11;;;;;;;;;;;;;;;12.28;49.04;97705.66;4219014;28;6333;-63
2022/03/25 10:28:18;;;;;;;;;;;;;;;12.22;49.33;97709.03;4218593;28;5691;-64
2022/03/25 10:30:37;;;;;;;;;;;;;;;12.00;48.67;97713.38;4218659;28;5663;-63
2022/03/25 10:32:40;;;;;;;;;;;;;;;12.03;47.12;97701.63;4232041;28;5666;-62
2022/03/25 10:34:43;;;;;;;;;;;;;;;12.09;46.71;97701.72;4236066;28;5700;-63
2022/03/25 10:37:00;;;;;;;;;;;;;;;12.13;46.02;97703.00;4231170;28;5734;-64
2022/03/25 10:39:11;;;;;;;;;;;;;;;11.98;46.19;97710.09;4215349;28;5945;-64
2022/03/25 10:41:17;;;;;;;;;;;;;;;11.94;46.88;97708.81;4215399;28;5665;-64
2022/03/25 10:43:19;;;;;;;;;;;;;;;11.99;47.50;97709.09;4218854;28;5645;-64
2022/03/25 10:45:26;;;;;;;;;;;;;;;11.99;48.26;97703.78;4217672;28;5665;-64
2022/03/25 10:47:28;;;;;;;;;;;;;;;12.08;48.69;97692.13;4215464;28;6419;-64
2022/03/25 10:49:39;;;;;;;;;;;;;;;12.04;46.79;97704.09;4202126;28;5700;-64
2022/03/25 10:51:43;;;;;;;;;;;;;;;12.11;47.35;97696.22;4201612;28;5688;-64
2022/03/25 10:53:47;;;;;;;;;;;;;;;12.26;48.83;97696.25;4201892;28;5832;-62
2022/03/25 10:55:56;;;;;;;;;;;;;;;12.18;47.73;97700.63;4211800;28;5923;-64
2022/03/25 10:57:59;;;;;;;;;;;;;;;12.26;47.63;97696.25;4218366;28;5671;-63
2022/03/25 11:00:00;;;;;;;;;;;;;;;12.24;45.72;97694.63;4217371;28;5675;-61
2022/03/25 11:02:05;;;;;;;;;;;;;;;12.36;44.22;97694.16;4216768;28;5661;-60
2022/03/25 11:04:08;;;;;;;;;;;;;;;12.47;44.65;97694.53;4218369;28;5658;-61
2022/03/25 11:06:15;;;;;;;;;;;;;;;12.59;44.03;97692.25;4217559;28;5649;-61
2022/03/25 11:08:17;;;;;;;;;;;;;;;12.71;43.91;97685.47;4217995;28;5662;-62
2022/03/25 11:10:25;;;;;;;;;;;;;;;12.62;41.61;97691.88;4216262;28;5762;-61
2022/03/25 11:12:27;;;;;;;;;;;;;;;12.55;41.60;97690.94;4216529;28;5762;-62
2022/03/25 11:14:32;;;;;;;;;;;;;;;12.50;41.45;97686.22;4217743;28;5702;-62
2022/03/25 11:16:39;;;;;;;;;;;;;;;12.58;42.00;97689.78;4217159;28;5683;-61
2022/03/25 11:18:42;;;;;;;;;;;;;;;12.65;41.00;97680.06;4217378;28;5594;-61
2022/03/25 11:20:44;;;;;;;;;;;;;;;12.61;40.77;97679.63;4216355;28;8062;-63
2022/03/25 11:22:51;;;;;;;;;;;;;;;12.77;42.71;97674.09;4215833;28;5770;-61
2022/03/25 11:24:59;;;;;;;;;;;;;;;12.91;42.90;97668.94;4208719;28;5696;-62
2022/03/25 11:27:16;;;;;;;;;;;;;;;12.91;43.78;97668.94;4199351;28;5865;-62
2022/03/25 11:29:22;;;;;;;;;;;;;;;12.73;44.98;97662.22;4217825;28;5830;-62
2022/03/25 11:31:24;;;;;;;;;;;;;;;12.74;45.21;97668.34;4216305;28;5763;-61
2022/03/25 11:33:28;;;;;;;;;;;;;;;12.76;45.07;97661.84;4217759;28;5666;-61
2022/03/25 11:35:41;;;;;;;;;;;;;;;12.85;45.52;97659.09;4217781;28;5683;-62
2022/03/25 11:37:43;;;;;;;;;;;;;;;12.69;45.10;97653.00;4212772;28;5287;-62
2022/03/25 11:39:45;;;;;;;;;;;;;;;12.78;45.54;97649.19;4213341;28;7761;-63
2022/03/25 11:41:47;;;;;;;;;;;;;;;12.88;45.68;97648.91;4218096;28;6255;-61
2022/03/25 11:44:14;;;;;;;;;;;;;;;12.95;45.41;97651.66;4217668;28;6377;-62
2022/03/25 11:46:16;;;;;;;;;;;;;;;13.05;45.07;97650.34;4218027;28;5799;-62
2022/03/25 11:48:24;;;;;;;;;;;;;;;13.08;44.83;97643.84;4209076;28;7763;-62
2022/03/25 11:50:35;;;;;;;;;;;;;;;13.02;44.47;97634.81;4211245;28;5721;-61
2022/03/25 11:52:37;;;;;;;;;;;;;;;12.87;42.31;97631.34;4211227;28;5690;-62
2022/03/25 11:54:41;;;;;;;;;;;;;;;13.01;43.18;97638.44;4215493;28;5679;-62
2022/03/25 11:56:48;;;;;;;;;;;;;;;13.13;44.06;97633.47;4217690;28;5759;-61
2022/03/25 11:59:00;;;;;;;;;;;;;;;13.10;43.54;97634.66;4216870;28;5687;-61
2022/03/25 12:01:08;;;;;;;;;;;;;;;13.13;43.94;97625.50;4217095;28;5675;-62
2022/03/25 12:03:12;;;;;;;;;;;;;;;13.33;43.93;97623.06;4210607;28;5724;-62
2022/03/25 12:05:25;;;;;;;;;;;;;;;13.40;43.50;97619.47;4217284;28;5702;-62
2022/03/25 12:07:27;;;;;;;;;;;;;;;13.35;44.12;97621.84;4216884;28;5683;-60
2022/03/25 12:09:35;;;;;;;;;;;;;;;13.33;44.33;97615.09;4208596;28;5737;-61
2022/03/25 12:11:53;;;;;;;;;;;;;;;13.49;44.32;97614.03;4217359;28;5779;-61
2022/03/25 12:14:04;;;;;;;;;;;;;;;13.59;43.71;97609.19;4216905;28;5721;-61
2022/03/25 12:16:05;;;;;;;;;;;;;;;13.43;42.72;97598.84;4217435;28;5700;-61
2022/03/25 12:18:39;;;;;;;;;;;;;;;13.60;42.58;97603.72;4216850;28;5687;-62
2022/03/25 12:20:41;;;;;;;;;;;;;;;13.68;42.11;97592.91;4217148;28;5656;-61
2022/03/25 12:22:43;;;;;;;;;;;;;;;13.69;41.35;97599.06;4205916;28;5700;-62
2022/03/25 12:24:46;;;;;;;;;;;;;;;13.70;40.43;97584.75;4214013;28;5766;-62
2022/03/25 12:27:02;;;;;;;;;;;;;;;13.76;39.16;97588.50;4216635;28;5770;-63
2022/03/25 12:29:08;;;;;;;;;;;;;;;13.62;38.62;97585.75;4216311;28;5709;-62
2022/03/25 12:31:10;;;;;;;;;;;;;;;13.69;37.92;97591.91;4217948;28;5630;-62
2022/03/25 12:33:13;;;;;;;;;;;;;;;13.84;37.96;97586.50;4219532;28;5675;-62
2022/03/25 12:35:17;;;;;;;;;;;;;;;13.96;39.44;97584.94;4216593;28;5774;-62
2022/03/25 12:37:24;;;;;;;;;;;;;;;13.93;39.08;97574.72;4215096;28;5921;-62
2022/03/25 12:39:28;;;;;;;;;;;;;;;14.04;39.54;97580.47;4211772;28;6424;-62
2022/03/25 12:41:31;;;;;;;;;;;;;;;14.11;40.09;97570.72;4216757;28;5735;-62
2022/03/25 12:44:00;;;;;;;;;;;;;;;13.91;39.79;97571.41;4209346;28;5700;-60
2022/03/25 12:46:09;;;;;;;;;;;;;;;13.95;40.00;97571.84;4198724;28;5795;-62
2022/03/25 12:48:20;;;;;;;;;;;;;;;13.98;39.97;97561.66;4206993;28;5679;-62
2022/03/25 12:50:27;;;;;;;;;;;;;;;14.04;39.94;97560.03;4215008;28;5723;-62
2022/03/25 12:52:30;;;;;;;;;;;;;;;14.12;39.91;97551.06;4216796;28;5703;-62
2022/03/25 12:54:36;;;;;;;;;;;;;;;14.17;40.18;97549.47;4215329;28;5671;-62
2022/03/25 12:56:38;;;;;;;;;;;;;;;14.20;40.42;97548.25;4200767;28;5700;-62
2022/03/25 12:58:40;;;;;;;;;;;;;;;14.22;40.82;97535.59;4216630;28;5679;-62
2022/03/25 13:00:45;;;;;;;;;;;;;;;14.23;41.23;97538.03;4215647;28;5638;-62
2022/03/25 13:02:47;;;;;;;;;;;;;;;14.30;41.52;97537.25;4216126;28;5871;-64
2022/03/25 13:04:49;;;;;;;;;;;;;;;14.32;42.06;97533.38;4215763;28;5687;-62
2022/03/25 13:06:56;;;;;;;;;;;;;;;14.44;41.91;97530.97;4216265;28;6328;-63
2022/03/25 13:09:02;;;;;;;;;;;;;;;14.35;42.04;97519.69;4215863;28;5976;-62
2022/03/25 13:11:04;;;;;;;;;;;;;;;14.42;42.22;97519.72;4214894;28;5765;-61
2022/03/25 13:13:09;;;;;;;;;;;;;;;14.51;42.33;97523.88;4215080;28;5679;-61
2022/03/25 13:15:13;;;;;;;;;;;;;;;14.60;42.11;97521.81;4207564;28;5796;-61
2022/03/25 13:17:32;;;;;;;;;;;;;;;14.69;42.17;97517.97;4199903;28;5779;-61
2022/03/25 13:19:34;;;;;;;;;;;;;;;14.65;42.17;97511.41;4205683;28;6481;-62
2022/03/25 13:21:36;;;;;;;;;;;;;;;14.65;42.34;97514.91;4219559;28;5697;-61
2022/03/25 13:23:38;;;;;;;;;;;;;;;14.70;41.90;97506.28;4219684;28;5659;-61
2022/03/25 13:25:47;;;;;;;;;;;;;;;14.63;42.12;97497.50;4207966;28;5724;-61
2022/03/25 13:27:56;;;;;;;;;;;;;;;14.69;42.42;97505.47;4219898;28;5856;-62
2022/03/25 13:29:57;;;;;;;;;;;;;;;14.77;41.95;97501.81;4219269;28;5924;-63
2022/03/25 13:32:06;;;;;;;;;;;;;;;14.80;42.11;97501.41;4201620;28;5819;-61
2022/03/25 13:34:15;;;;;;;;;;;;;;;14.74;41.96;97495.06;4208652;28;5751;-61
2022/03/25 13:36:33;;;;;;;;;;;;;;;14.77;41.74;97496.50;4219948;28;6428;-61
2022/03/25 13:38:37;;;;;;;;;;;;;;;14.72;41.69;97493.59;4202307;28;5866;-62
2022/03/25 13:40:59;;;;;;;;;;;;;;;14.49;41.56;97476.16;4206174;28;5836;-63
2022/03/25 13:43:03;;;;;;;;;;;;;;;14.69;41.34;97478.88;4203150;28;5760;-62
2022/03/25 13:45:10;;;;;;;;;;;;;;;14.83;41.74;97485.03;4218503;28;5838;-62
2022/03/25 13:47:14;;;;;;;;;;;;;;;14.80;41.79;97485.44;4214893;28;5896;-62
2022/03/25 13:49:17;;;;;;;;;;;;;;;14.82;41.01;97488.72;4216899;28;5687;-65
2022/03/25 13:51:30;;;;;;;;;;;;;;;14.92;41.13;97477.66;4219021;28;5780;-63
2022/03/25 13:53:37;;;;;;;;;;;;;;;14.89;41.10;97467.44;4219112;28;5641;-62
2022/03/25 13:55:41;;;;;;;;;;;;;;;14.86;40.62;97476.66;4209947;28;5705;-62
2022/03/25 13:58:04;;;;;;;;;;;;;;;14.85;40.66;97464.38;4202017;28;5826;-61
2022/03/25 14:00:09;;;;;;;;;;;;;;;14.86;41.14;97468.66;4218657;28;5869;-62
2022/03/25 14:02:28;;;;;;;;;;;;;;;14.89;41.28;97456.78;4202505;28;5680;-61
2022/03/25 14:04:31;;;;;;;;;;;;;;;14.91;41.04;97463.53;4216238;28;5661;-62
2022/03/25 14:06:36;;;;;;;;;;;;;;;14.93;41.41;97453.50;4215895;28;5635;-63
2022/03/25 14:08:57;;;;;;;;;;;;;;;14.92;41.37;97445.72;4218710;28;5662;-62
2022/03/25 14:10:59;;;;;;;;;;;;;;;14.88;41.67;97447.97;4214503;28;5634;-62
2022/03/25 14:13:05;;;;;;;;;;;;;;;14.97;41.67;97444.09;4210988;28;5684;-62
2022/03/25 14:15:18;;;;;;;;;;;;;;;14.81;41.67;97441.81;4211947;28;5654;-62
2022/03/25 14:17:19;;;;;;;;;;;;;;;14.86;41.92;97436.72;4215520;28;5645;-63
2022/03/25 14:19:22;;;;;;;;;;;;;;;14.89;42.28;97436.31;4217279;28;5695;-62
2022/03/25 14:21:24;;;;;;;;;;;;;;;14.98;42.18;97440.41;4232495;27;5720;-62
2022/03/25 14:23:26;;;;;;;;;;;;;;;14.96;41.57;97439.78;4215075;28;5853;-62
2022/03/25 14:25:32;;;;;;;;;;;;;;;14.93;41.90;97420.72;4211943;28;5771;-61
2022/03/25 14:27:35;;;;;;;;;;;;;;;15.03;41.76;97426.47;4219126;28;5667;-61
2022/03/25 14:29:39;;;;;;;;;;;;;;;15.06;41.92;97421.56;4218748;28;5683;-61
2022/03/25 14:31:43;;;;;;;;;;;;;;;14.93;41.88;97421.56;4216327;28;5646;-61
2022/03/25 14:33:44;;;;;;;;;;;;;;;15.03;41.92;97416.63;4213776;28;5766;-62
2022/03/25 14:35:46;;;;;;;;;;;;;;;14.94;41.86;97417.84;4211150;28;5755;-62
2022/03/25 14:37:52;;;;;;;;;;;;;;;14.89;41.39;97415.00;4218400;28;6383;-61
2022/03/25 14:39:54;;;;;;;;;;;;;;;15.00;42.02;97424.22;4210779;28;5708;-61
2022/03/25 14:41:56;;;;;;;;;;;;;;;15.02;42.14;97415.00;4203651;28;5684;-61
2022/03/25 14:43:59;;;;;;;;;;;;;;;15.08;41.91;97414.19;4200371;28;5759;-61
2022/03/25 14:46:00;;;;;;;;;;;;;;;15.11;41.71;97413.75;4201576;28;5722;-61
2022/03/25 14:48:02;;;;;;;;;;;;;;;15.17;41.63;97400.63;4203849;28;5758;-61
2022/03/25 14:50:08;;;;;;;;;;;;;;;15.23;41.84;97402.47;4201731;28;5745;-61
2022/03/25 14:52:11;;;;;;;;;;;;;;;15.25;41.82;97403.09;4207490;28;5634;-61
2022/03/25 14:54:13;;;;;;;;;;;;;;;15.29;41.23;97404.31;4211215;28;5696;-62
2022/03/25 14:56:15;;;;;;;;;;;;;;;15.34;41.03;97407.19;4202117;28;5784;-62
2022/03/25 14:58:16;;;;;;;;;;;;;;;15.33;40.78;97410.88;4206723;28;6294;-62
2022/03/25 15:00:19;;;;;;;;;;;;;;;15.35;40.62;97400.81;4205820;28;5790;-62
2022/03/25 15:02:21;;;;;;;;;;;;;;;15.39;40.95;97404.69;4218438;28;5753;-62
2022/03/25 15:04:26;;;;;;;;;;;;;;;15.39;41.02;97405.50;4215604;28;6008;-62
2022/03/25 15:06:27;;;;;;;;;;;;;;;15.28;41.24;97402.66;4210648;28;5862;-61
2022/03/25 15:08:30;;;;;;;;;;;;;;;15.31;42.05;97392.44;4210486;28;5668;-63
2022/03/25 15:10:31;;;;;;;;;;;;;;;15.28;42.01;97398.16;4216162;28;5692;-62
2022/03/25 15:12:33;;;;;;;;;;;;;;;15.37;42.77;97414.75;4212563;28;5646;-62
2022/03/25 15:14:35;;;;;;;;;;;;;;;15.26;43.63;97407.38;4213306;28;5825;-62
2022/03/25 15:16:38;;;;;;;;;;;;;;;15.37;43.05;97404.09;4217210;28;5659;-62
2022/03/25 15:18:42;;;;;;;;;;;;;;;15.32;43.12;97398.59;4214277;28;6398;-63
2022/03/25 15:20:45;;;;;;;;;;;;;;;15.41;43.42;97400.00;4215863;28;5671;-63
2022/03/25 15:22:47;;;;;;;;;;;;;;;15.37;43.08;97396.91;4211716;28;5716;-62
2022/03/25 15:24:49;;;;;;;;;;;;;;;15.41;42.57;97395.50;4202233;28;5760;-63
2022/03/25 15:26:54;;;;;;;;;;;;;;;15.37;42.79;97391.59;4208410;28;5646;-62
2022/03/25 15:28:56;;;;;;;;;;;;;;;15.34;42.93;97386.69;4214172;28;5769;-62
2022/03/25 15:35:39;;;;;;;;;;;;;;;15.43;42.18;97388.09;4216365;28;5765;-62
2022/03/25 15:38:01;;;;;;;;;;;;;;;15.21;42.06;97376.06;4215213;28;5825;-62
2022/03/25 15:40:04;;;;;;;;;;;;;;;15.27;42.00;97379.72;4206641;28;5791;-62
2022/03/25 15:42:06;;;;;;;;;;;;;;;15.36;42.32;97381.13;4207874;28;5850;-62
2022/03/25 15:44:08;;;;;;;;;;;;;;;15.45;42.10;97374.56;4207193;28;5886;-62
2022/03/25 15:46:12;;;;;;;;;;;;;;;15.50;42.22;97377.41;4199652;28;6533;-62
2022/03/25 15:48:16;;;;;;;;;;;;;;;15.46;42.37;97378.88;4206752;28;5782;-63
2022/03/25 15:50:19;;;;;;;;;;;;;;;15.37;42.10;97374.78;4211487;28;5997;-63
2022/03/25 15:52:24;;;;;;;;;;;;;;;15.29;42.17;97369.66;4199901;28;5745;-63
2022/03/25 15:54:25;;;;;;;;;;;;;;;15.53;39.49;97369.00;4197959;28;5898;-63
2022/03/25 15:56:27;;;;;;;;;;;;;;;15.60;41.30;97369.81;4198335;28;5693;-63
2022/03/25 15:58:29;;;;;;;;;;;;;;;15.64;41.54;97365.72;4197679;28;6498;-63
2022/03/25 16:00:36;;;;;;;;;;;;;;;15.73;40.89;97367.09;4197530;28;5820;-63
2022/03/25 16:02:43;;;;;;;;;;;;;;;15.85;40.22;97366.44;4209525;28;5856;-63
2022/03/25 16:04:44;;;;;;;;;;;;;;;15.99;36.36;97362.69;4197509;28;6518;-63
2022/03/25 16:06:52;;;;;;;;;;;;;;;16.04;38.34;97376.19;4197723;28;5900;-64
2022/03/25 16:08:53;;;;;;;;;;;;;;;16.09;35.97;97362.22;4196492;28;5792;-63
2022/03/25 16:11:15;;;;;;;;;;;;;;;16.51;31.30;97355.38;4210322;28;5767;-63
2022/03/25 16:13:19;;;;;;;;;;;;;;;16.93;29.89;97363.69;4213832;28;5781;-63
2022/03/25 16:15:21;;;;;;;;;;;;;;;17.05;29.20;97361.94;4213908;28;5891;-62
2022/03/25 16:17:22;;;;;;;;;;;;;;;16.98;29.52;97366.50;4211340;28;5805;-62